sensor_id;sensor_type;location;lat;lon;timestamp;P1;durP1;ratioP1;P2;durP2;ratioP2
11098;SDS011;12223;42.650;23.364;2023-02-28T00:00:38;29.07;;;25.40;;
11098;SDS011;12223;42.650;23.364;2023-02-28T00:03:05;25.90;;;22.77;;
11098;SDS011;12223;42.650;23.364;2023-02-28T00:05:32;29.67;;;25.80;;
11098;SDS011;12223;42.650;23.364;2023-02-28T00:07:59;29.40;;;26.13;;
11098;SDS011;12223;42.650;23.364;2023-02-28T00:10:28;28.40;;;25.43;;
11098;SDS011;12223;42.650;23.364;2023-02-28T00:12:58;29.10;;;25.80;;
11098;SDS011;12223;42.650;23.364;2023-02-28T00:15:27;32.03;;;28.60;;
11098;SDS011;12223;42.650;23.364;2023-02-28T00:17:54;33.43;;;30.10;;
11098;SDS011;12223;42.650;23.364;2023-02-28T00:20:21;35.90;;;32.60;;
11098;SDS011;12223;42.650;23.364;2023-02-28T00:22:48;46.47;;;42.50;;
11098;SDS011;12223;42.650;23.364;2023-02-28T00:25:18;45.27;;;41.33;;
11098;SDS011;12223;42.650;23.364;2023-02-28T00:27:50;48.60;;;44.70;;
11098;SDS011;12223;42.650;23.364;2023-02-28T00:30:32;62.37;;;58.27;;
11098;SDS011;12223;42.650;23.364;2023-02-28T00:32:59;67.20;;;63.10;;
11098;SDS011;12223;42.650;23.364;2023-02-28T00:35:34;37.67;;;34.40;;
11098;SDS011;12223;42.650;23.364;2023-02-28T00:38:20;34.50;;;31.20;;
11098;SDS011;12223;42.650;23.364;2023-02-28T00:40:55;32.00;;;29.00;;
11098;SDS011;12223;42.650;23.364;2023-02-28T00:43:25;38.73;;;35.37;;
11098;SDS011;12223;42.650;23.364;2023-02-28T00:45:51;36.27;;;32.90;;
11098;SDS011;12223;42.650;23.364;2023-02-28T00:48:21;35.23;;;31.83;;
11098;SDS011;12223;42.650;23.364;2023-02-28T00:50:50;32.23;;;28.83;;
11098;SDS011;12223;42.650;23.364;2023-02-28T00:53:18;42.23;;;38.60;;
11098;SDS011;12223;42.650;23.364;2023-02-28T00:55:48;26.57;;;21.00;;
11098;SDS011;12223;42.650;23.364;2023-02-28T00:58:18;27.37;;;22.47;;
11098;SDS011;12223;42.650;23.364;2023-02-28T01:00:46;28.80;;;21.80;;
11098;SDS011;12223;42.650;23.364;2023-02-28T01:03:14;29.23;;;22.77;;
11098;SDS011;12223;42.650;23.364;2023-02-28T01:05:45;27.87;;;23.20;;
11098;SDS011;12223;42.650;23.364;2023-02-28T01:08:13;33.93;;;30.30;;
11098;SDS011;12223;42.650;23.364;2023-02-28T01:10:40;29.47;;;26.33;;
11098;SDS011;12223;42.650;23.364;2023-02-28T01:13:07;31.67;;;27.83;;
11098;SDS011;12223;42.650;23.364;2023-02-28T01:15:35;33.93;;;30.47;;
11098;SDS011;12223;42.650;23.364;2023-02-28T01:18:04;29.73;;;24.87;;
11098;SDS011;12223;42.650;23.364;2023-02-28T01:20:31;35.73;;;28.93;;
11098;SDS011;12223;42.650;23.364;2023-02-28T01:22:58;32.83;;;26.53;;
11098;SDS011;12223;42.650;23.364;2023-02-28T01:25:24;30.37;;;25.13;;
11098;SDS011;12223;42.650;23.364;2023-02-28T01:27:51;34.30;;;26.83;;
11098;SDS011;12223;42.650;23.364;2023-02-28T01:30:18;36.73;;;27.20;;
11098;SDS011;12223;42.650;23.364;2023-02-28T01:32:45;42.47;;;27.97;;
11098;SDS011;12223;42.650;23.364;2023-02-28T01:35:18;40.07;;;28.80;;
11098;SDS011;12223;42.650;23.364;2023-02-28T01:37:44;36.40;;;24.93;;
11098;SDS011;12223;42.650;23.364;2023-02-28T01:40:12;35.40;;;26.67;;
11098;SDS011;12223;42.650;23.364;2023-02-28T01:42:51;39.47;;;26.43;;
11098;SDS011;12223;42.650;23.364;2023-02-28T01:45:19;41.57;;;31.33;;
11098;SDS011;12223;42.650;23.364;2023-02-28T01:47:50;38.50;;;30.10;;
11098;SDS011;12223;42.650;23.364;2023-02-28T01:50:24;33.00;;;26.37;;
11098;SDS011;12223;42.650;23.364;2023-02-28T01:53:00;34.77;;;25.80;;
11098;SDS011;12223;42.650;23.364;2023-02-28T01:55:31;34.23;;;24.93;;
11098;SDS011;12223;42.650;23.364;2023-02-28T01:58:02;35.53;;;25.80;;
11098;SDS011;12223;42.650;23.364;2023-02-28T02:00:35;35.50;;;25.83;;
11098;SDS011;12223;42.650;23.364;2023-02-28T02:03:08;36.50;;;26.63;;
11098;SDS011;12223;42.650;23.364;2023-02-28T02:05:40;32.87;;;24.40;;
11098;SDS011;12223;42.650;23.364;2023-02-28T02:08:20;36.83;;;26.93;;
11098;SDS011;12223;42.650;23.364;2023-02-28T02:10:52;35.83;;;28.40;;
11098;SDS011;12223;42.650;23.364;2023-02-28T02:13:30;64.27;;;58.77;;
11098;SDS011;12223;42.650;23.364;2023-02-28T02:16:16;40.00;;;35.90;;
11098;SDS011;12223;42.650;23.364;2023-02-28T02:19:15;32.27;;;25.67;;
11098;SDS011;12223;42.650;23.364;2023-02-28T02:22:05;33.37;;;29.97;;
11098;SDS011;12223;42.650;23.364;2023-02-28T02:24:49;89.60;;;84.37;;
11098;SDS011;12223;42.650;23.364;2023-02-28T02:27:40;79.30;;;74.30;;
11098;SDS011;12223;42.650;23.364;2023-02-28T02:30:35;109.77;;;103.73;;
11098;SDS011;12223;42.650;23.364;2023-02-28T02:33:27;66.00;;;61.50;;
11098;SDS011;12223;42.650;23.364;2023-02-28T02:36:31;41.37;;;37.87;;
11098;SDS011;12223;42.650;23.364;2023-02-28T02:39:05;75.53;;;70.53;;
11098;SDS011;12223;42.650;23.364;2023-02-28T02:41:40;39.40;;;35.70;;
11098;SDS011;12223;42.650;23.364;2023-02-28T02:44:15;50.33;;;46.10;;
11098;SDS011;12223;42.650;23.364;2023-02-28T02:46:47;32.73;;;29.00;;
11098;SDS011;12223;42.650;23.364;2023-02-28T02:49:17;30.53;;;26.87;;
11098;SDS011;12223;42.650;23.364;2023-02-28T02:51:50;31.97;;;26.37;;
11098;SDS011;12223;42.650;23.364;2023-02-28T02:54:20;29.07;;;25.03;;
11098;SDS011;12223;42.650;23.364;2023-02-28T02:56:54;32.80;;;28.20;;
11098;SDS011;12223;42.650;23.364;2023-02-28T02:59:23;54.27;;;49.97;;
11098;SDS011;12223;42.650;23.364;2023-02-28T03:01:52;42.00;;;37.87;;
11098;SDS011;12223;42.650;23.364;2023-02-28T03:04:40;42.73;;;38.20;;
11098;SDS011;12223;42.650;23.364;2023-02-28T03:07:16;36.87;;;33.03;;
11098;SDS011;12223;42.650;23.364;2023-02-28T03:09:50;45.77;;;41.67;;
11098;SDS011;12223;42.650;23.364;2023-02-28T03:12:18;58.27;;;53.97;;
11098;SDS011;12223;42.650;23.364;2023-02-28T03:14:49;66.73;;;61.60;;
11098;SDS011;12223;42.650;23.364;2023-02-28T03:17:25;34.20;;;29.03;;
11098;SDS011;12223;42.650;23.364;2023-02-28T03:20:12;76.20;;;70.73;;
11098;SDS011;12223;42.650;23.364;2023-02-28T03:22:52;97.97;;;91.43;;
11098;SDS011;12223;42.650;23.364;2023-02-28T03:25:29;95.77;;;89.80;;
11098;SDS011;12223;42.650;23.364;2023-02-28T03:28:05;77.40;;;72.13;;
11098;SDS011;12223;42.650;23.364;2023-02-28T03:30:41;89.60;;;83.73;;
11098;SDS011;12223;42.650;23.364;2023-02-28T03:33:14;99.30;;;93.13;;
11098;SDS011;12223;42.650;23.364;2023-02-28T03:35:50;48.17;;;43.50;;
11098;SDS011;12223;42.650;23.364;2023-02-28T03:38:22;38.50;;;29.07;;
11098;SDS011;12223;42.650;23.364;2023-02-28T03:40:55;43.83;;;35.53;;
11098;SDS011;12223;42.650;23.364;2023-02-28T03:43:27;61.30;;;56.03;;
11098;SDS011;12223;42.650;23.364;2023-02-28T03:45:58;67.33;;;61.63;;
11098;SDS011;12223;42.650;23.364;2023-02-28T03:48:35;45.70;;;40.97;;
11098;SDS011;12223;42.650;23.364;2023-02-28T03:51:06;39.30;;;32.70;;
11098;SDS011;12223;42.650;23.364;2023-02-28T03:53:37;38.47;;;31.10;;
11098;SDS011;12223;42.650;23.364;2023-02-28T03:56:09;37.60;;;27.43;;
11098;SDS011;12223;42.650;23.364;2023-02-28T03:58:44;47.77;;;31.40;;
11098;SDS011;12223;42.650;23.364;2023-02-28T04:01:16;59.70;;;50.37;;
11098;SDS011;12223;42.650;23.364;2023-02-28T04:03:49;57.13;;;44.10;;
11098;SDS011;12223;42.650;23.364;2023-02-28T04:06:16;78.33;;;58.57;;
11098;SDS011;12223;42.650;23.364;2023-02-28T04:08:47;62.60;;;56.70;;
11098;SDS011;12223;42.650;23.364;2023-02-28T04:11:19;44.47;;;22.83;;
11098;SDS011;12223;42.650;23.364;2023-02-28T04:13:48;56.27;;;40.30;;
11098;SDS011;12223;42.650;23.364;2023-02-28T04:16:15;52.90;;;46.20;;
11098;SDS011;12223;42.650;23.364;2023-02-28T04:18:42;41.47;;;24.00;;
11098;SDS011;12223;42.650;23.364;2023-02-28T04:21:09;48.03;;;27.83;;
11098;SDS011;12223;42.650;23.364;2023-02-28T04:23:39;60.83;;;34.30;;
11098;SDS011;12223;42.650;23.364;2023-02-28T04:26:07;42.53;;;26.93;;
11098;SDS011;12223;42.650;23.364;2023-02-28T04:28:34;45.40;;;37.33;;
11098;SDS011;12223;42.650;23.364;2023-02-28T04:31:04;42.80;;;26.20;;
11098;SDS011;12223;42.650;23.364;2023-02-28T04:33:35;39.77;;;26.10;;
11098;SDS011;12223;42.650;23.364;2023-02-28T04:36:02;40.47;;;26.63;;
11098;SDS011;12223;42.650;23.364;2023-02-28T04:38:32;53.13;;;30.23;;
11098;SDS011;12223;42.650;23.364;2023-02-28T04:41:02;42.80;;;27.77;;
11098;SDS011;12223;42.650;23.364;2023-02-28T04:43:31;51.90;;;30.57;;
11098;SDS011;12223;42.650;23.364;2023-02-28T04:46:00;49.50;;;43.87;;
11098;SDS011;12223;42.650;23.364;2023-02-28T04:48:29;77.33;;;69.93;;
11098;SDS011;12223;42.650;23.364;2023-02-28T04:50:59;79.10;;;72.13;;
11098;SDS011;12223;42.650;23.364;2023-02-28T04:53:27;37.90;;;31.03;;
11098;SDS011;12223;42.650;23.364;2023-02-28T04:55:54;81.00;;;66.90;;
11098;SDS011;12223;42.650;23.364;2023-02-28T04:58:21;109.27;;;81.70;;
11098;SDS011;12223;42.650;23.364;2023-02-28T05:00:50;103.30;;;35.80;;
11098;SDS011;12223;42.650;23.364;2023-02-28T05:03:17;90.60;;;34.00;;
11098;SDS011;12223;42.650;23.364;2023-02-28T05:05:45;59.00;;;31.60;;
11098;SDS011;12223;42.650;23.364;2023-02-28T05:08:12;90.10;;;42.33;;
11098;SDS011;12223;42.650;23.364;2023-02-28T05:10:39;95.87;;;54.23;;
11098;SDS011;12223;42.650;23.364;2023-02-28T05:13:09;106.00;;;85.73;;
11098;SDS011;12223;42.650;23.364;2023-02-28T05:15:37;97.20;;;66.37;;
11098;SDS011;12223;42.650;23.364;2023-02-28T05:18:07;95.47;;;62.20;;
11098;SDS011;12223;42.650;23.364;2023-02-28T05:20:34;96.40;;;86.60;;
11098;SDS011;12223;42.650;23.364;2023-02-28T05:23:02;98.20;;;87.20;;
11098;SDS011;12223;42.650;23.364;2023-02-28T05:25:29;89.47;;;56.27;;
11098;SDS011;12223;42.650;23.364;2023-02-28T05:27:58;73.80;;;61.97;;
11098;SDS011;12223;42.650;23.364;2023-02-28T05:30:26;67.10;;;46.57;;
11098;SDS011;12223;42.650;23.364;2023-02-28T05:32:52;68.67;;;44.07;;
11098;SDS011;12223;42.650;23.364;2023-02-28T05:35:21;61.67;;;39.30;;
11098;SDS011;12223;42.650;23.364;2023-02-28T05:37:48;60.33;;;42.93;;
11098;SDS011;12223;42.650;23.364;2023-02-28T05:40:14;64.17;;;42.20;;
11098;SDS011;12223;42.650;23.364;2023-02-28T05:42:44;63.53;;;39.67;;
11098;SDS011;12223;42.650;23.364;2023-02-28T05:45:11;63.30;;;37.47;;
11098;SDS011;12223;42.650;23.364;2023-02-28T05:47:38;59.87;;;41.70;;
11098;SDS011;12223;42.650;23.364;2023-02-28T05:50:06;50.67;;;39.70;;
11098;SDS011;12223;42.650;23.364;2023-02-28T05:52:36;50.00;;;39.57;;
11098;SDS011;12223;42.650;23.364;2023-02-28T05:55:04;44.43;;;37.87;;
11098;SDS011;12223;42.650;23.364;2023-02-28T05:57:32;43.50;;;32.90;;
11098;SDS011;12223;42.650;23.364;2023-02-28T05:59:59;46.37;;;34.83;;
11098;SDS011;12223;42.650;23.364;2023-02-28T06:02:26;46.23;;;32.23;;
11098;SDS011;12223;42.650;23.364;2023-02-28T06:04:53;47.10;;;30.50;;
11098;SDS011;12223;42.650;23.364;2023-02-28T06:07:20;41.87;;;32.30;;
11098;SDS011;12223;42.650;23.364;2023-02-28T06:09:48;41.57;;;33.50;;
11098;SDS011;12223;42.650;23.364;2023-02-28T06:12:15;57.90;;;52.17;;
11098;SDS011;12223;42.650;23.364;2023-02-28T06:14:42;45.77;;;37.40;;
11098;SDS011;12223;42.650;23.364;2023-02-28T06:17:10;59.43;;;54.20;;
11098;SDS011;12223;42.650;23.364;2023-02-28T06:19:39;51.43;;;46.70;;
11098;SDS011;12223;42.650;23.364;2023-02-28T06:22:06;39.93;;;29.27;;
11098;SDS011;12223;42.650;23.364;2023-02-28T06:24:33;36.80;;;31.13;;
11098;SDS011;12223;42.650;23.364;2023-02-28T06:27:01;44.20;;;35.10;;
11098;SDS011;12223;42.650;23.364;2023-02-28T06:29:30;59.53;;;52.30;;
11098;SDS011;12223;42.650;23.364;2023-02-28T06:31:57;53.33;;;33.47;;
11098;SDS011;12223;42.650;23.364;2023-02-28T06:34:24;40.87;;;31.00;;
11098;SDS011;12223;42.650;23.364;2023-02-28T06:36:51;48.53;;;35.63;;
11098;SDS011;12223;42.650;23.364;2023-02-28T06:39:18;46.50;;;40.30;;
11098;SDS011;12223;42.650;23.364;2023-02-28T06:41:45;41.80;;;37.60;;
11098;SDS011;12223;42.650;23.364;2023-02-28T06:44:17;41.73;;;37.67;;
11098;SDS011;12223;42.650;23.364;2023-02-28T06:46:47;36.90;;;30.67;;
11098;SDS011;12223;42.650;23.364;2023-02-28T06:49:14;36.33;;;30.00;;
11098;SDS011;12223;42.650;23.364;2023-02-28T06:51:43;37.47;;;33.47;;
11098;SDS011;12223;42.650;23.364;2023-02-28T06:54:12;42.80;;;35.97;;
11098;SDS011;12223;42.650;23.364;2023-02-28T06:56:39;46.40;;;41.70;;
11098;SDS011;12223;42.650;23.364;2023-02-28T06:59:08;51.37;;;46.07;;
11098;SDS011;12223;42.650;23.364;2023-02-28T07:01:36;49.93;;;45.07;;
11098;SDS011;12223;42.650;23.364;2023-02-28T07:04:04;108.73;;;101.50;;
11098;SDS011;12223;42.650;23.364;2023-02-28T07:06:34;42.07;;;35.73;;
11098;SDS011;12223;42.650;23.364;2023-02-28T07:09:03;60.63;;;55.17;;
11098;SDS011;12223;42.650;23.364;2023-02-28T07:11:30;43.07;;;34.63;;
11098;SDS011;12223;42.650;23.364;2023-02-28T07:13:57;44.10;;;36.07;;
11098;SDS011;12223;42.650;23.364;2023-02-28T07:16:25;56.53;;;50.90;;
11098;SDS011;12223;42.650;23.364;2023-02-28T07:18:54;83.60;;;77.37;;
11098;SDS011;12223;42.650;23.364;2023-02-28T07:21:21;78.57;;;72.30;;
11098;SDS011;12223;42.650;23.364;2023-02-28T07:23:48;76.67;;;70.80;;
11098;SDS011;12223;42.650;23.364;2023-02-28T07:26:16;41.23;;;36.40;;
11098;SDS011;12223;42.650;23.364;2023-02-28T07:28:46;40.53;;;34.30;;
11098;SDS011;12223;42.650;23.364;2023-02-28T07:31:14;41.57;;;37.23;;
11098;SDS011;12223;42.650;23.364;2023-02-28T07:33:43;41.57;;;37.27;;
11098;SDS011;12223;42.650;23.364;2023-02-28T07:36:12;116.50;;;109.23;;
11098;SDS011;12223;42.650;23.364;2023-02-28T07:38:43;72.27;;;66.93;;
11098;SDS011;12223;42.650;23.364;2023-02-28T07:41:37;208.93;;;198.20;;
11098;SDS011;12223;42.650;23.364;2023-02-28T07:44:08;197.87;;;187.17;;
11098;SDS011;12223;42.650;23.364;2023-02-28T07:46:36;190.93;;;180.70;;
11098;SDS011;12223;42.650;23.364;2023-02-28T07:49:03;142.33;;;134.80;;
11098;SDS011;12223;42.650;23.364;2023-02-28T07:51:41;52.47;;;48.23;;
11098;SDS011;12223;42.650;23.364;2023-02-28T07:54:08;77.33;;;72.20;;
11098;SDS011;12223;42.650;23.364;2023-02-28T07:56:39;74.57;;;69.50;;
11098;SDS011;12223;42.650;23.364;2023-02-28T07:59:07;113.10;;;107.07;;
11098;SDS011;12223;42.650;23.364;2023-02-28T08:01:34;27.57;;;21.67;;
11098;SDS011;12223;42.650;23.364;2023-02-28T08:04:03;33.93;;;30.60;;
11098;SDS011;12223;42.650;23.364;2023-02-28T08:06:30;45.07;;;40.97;;
11098;SDS011;12223;42.650;23.364;2023-02-28T08:08:58;50.00;;;46.10;;
11098;SDS011;12223;42.650;23.364;2023-02-28T08:11:26;93.67;;;87.43;;
11098;SDS011;12223;42.650;23.364;2023-02-28T08:13:54;39.87;;;36.23;;
11098;SDS011;12223;42.650;23.364;2023-02-28T08:16:21;102.30;;;96.50;;
11098;SDS011;12223;42.650;23.364;2023-02-28T08:18:48;70.43;;;65.60;;
11098;SDS011;12223;42.650;23.364;2023-02-28T08:21:26;45.43;;;41.33;;
11098;SDS011;12223;42.650;23.364;2023-02-28T08:23:54;114.23;;;107.20;;
11098;SDS011;12223;42.650;23.364;2023-02-28T08:26:25;73.97;;;68.83;;
11098;SDS011;12223;42.650;23.364;2023-02-28T08:28:52;67.87;;;63.03;;
11098;SDS011;12223;42.650;23.364;2023-02-28T08:31:20;69.40;;;64.90;;
11098;SDS011;12223;42.650;23.364;2023-02-28T08:33:51;112.37;;;106.23;;
11098;SDS011;12223;42.650;23.364;2023-02-28T08:36:18;71.20;;;67.40;;
11098;SDS011;12223;42.650;23.364;2023-02-28T08:38:46;83.17;;;78.20;;
11098;SDS011;12223;42.650;23.364;2023-02-28T08:41:13;199.87;;;189.83;;
11098;SDS011;12223;42.650;23.364;2023-02-28T08:43:43;98.43;;;92.50;;
11098;SDS011;12223;42.650;23.364;2023-02-28T08:46:11;361.97;;;342.40;;
11098;SDS011;12223;42.650;23.364;2023-02-28T08:48:39;282.63;;;268.40;;
11098;SDS011;12223;42.650;23.364;2023-02-28T08:51:10;260.03;;;247.37;;
11098;SDS011;12223;42.650;23.364;2023-02-28T08:53:39;166.03;;;157.83;;
11098;SDS011;12223;42.650;23.364;2023-02-28T08:56:07;35.13;;;31.97;;
11098;SDS011;12223;42.650;23.364;2023-02-28T08:58:36;112.70;;;106.33;;
11098;SDS011;12223;42.650;23.364;2023-02-28T09:01:15;413.67;;;391.97;;
11098;SDS011;12223;42.650;23.364;2023-02-28T09:03:43;105.40;;;99.60;;
11098;SDS011;12223;42.650;23.364;2023-02-28T09:06:13;68.87;;;64.53;;
11098;SDS011;12223;42.650;23.364;2023-02-28T09:08:40;31.20;;;29.10;;
11098;SDS011;12223;42.650;23.364;2023-02-28T09:11:08;28.97;;;26.60;;
11098;SDS011;12223;42.650;23.364;2023-02-28T09:13:35;40.87;;;36.97;;
11098;SDS011;12223;42.650;23.364;2023-02-28T09:16:03;26.80;;;23.67;;
11098;SDS011;12223;42.650;23.364;2023-02-28T09:18:34;353.90;;;336.43;;
11098;SDS011;12223;42.650;23.364;2023-02-28T09:21:02;393.80;;;374.97;;
11098;SDS011;12223;42.650;23.364;2023-02-28T09:23:32;169.43;;;160.63;;
11098;SDS011;12223;42.650;23.364;2023-02-28T09:26:00;31.93;;;21.50;;
11098;SDS011;12223;42.650;23.364;2023-02-28T09:28:27;34.10;;;31.13;;
11098;SDS011;12223;42.650;23.364;2023-02-28T09:30:54;27.50;;;24.93;;
11098;SDS011;12223;42.650;23.364;2023-02-28T09:33:22;28.57;;;25.57;;
11098;SDS011;12223;42.650;23.364;2023-02-28T09:35:51;25.83;;;23.03;;
11098;SDS011;12223;42.650;23.364;2023-02-28T09:38:24;42.53;;;38.63;;
11098;SDS011;12223;42.650;23.364;2023-02-28T09:40:53;41.57;;;38.63;;
11098;SDS011;12223;42.650;23.364;2023-02-28T09:43:23;30.63;;;20.40;;
11098;SDS011;12223;42.650;23.364;2023-02-28T09:45:55;57.00;;;52.67;;
11098;SDS011;12223;42.650;23.364;2023-02-28T09:48:27;30.37;;;27.47;;
11098;SDS011;12223;42.650;23.364;2023-02-28T09:51:02;28.80;;;26.50;;
11098;SDS011;12223;42.650;23.364;2023-02-28T09:53:31;31.63;;;28.00;;
11098;SDS011;12223;42.650;23.364;2023-02-28T09:56:01;22.20;;;16.43;;
11098;SDS011;12223;42.650;23.364;2023-02-28T09:58:32;20.70;;;18.43;;
11098;SDS011;12223;42.650;23.364;2023-02-28T10:01:05;20.83;;;17.57;;
11098;SDS011;12223;42.650;23.364;2023-02-28T10:03:39;26.63;;;24.40;;
11098;SDS011;12223;42.650;23.364;2023-02-28T10:06:29;32.13;;;28.80;;
11098;SDS011;12223;42.650;23.364;2023-02-28T10:09:02;25.30;;;23.13;;
11098;SDS011;12223;42.650;23.364;2023-02-28T10:11:37;25.77;;;20.47;;
11098;SDS011;12223;42.650;23.364;2023-02-28T10:14:10;36.50;;;34.40;;
11098;SDS011;12223;42.650;23.364;2023-02-28T10:16:43;31.63;;;28.97;;
11098;SDS011;12223;42.650;23.364;2023-02-28T10:19:17;27.93;;;20.00;;
11098;SDS011;12223;42.650;23.364;2023-02-28T10:21:57;30.27;;;27.77;;
11098;SDS011;12223;42.650;23.364;2023-02-28T10:24:38;35.10;;;32.20;;
11098;SDS011;12223;42.650;23.364;2023-02-28T10:27:12;50.63;;;46.60;;
11098;SDS011;12223;42.650;23.364;2023-02-28T10:29:41;24.70;;;22.17;;
11098;SDS011;12223;42.650;23.364;2023-02-28T10:32:10;19.37;;;17.73;;
11098;SDS011;12223;42.650;23.364;2023-02-28T10:34:42;25.93;;;23.23;;
11098;SDS011;12223;42.650;23.364;2023-02-28T10:37:13;51.23;;;47.63;;
11098;SDS011;12223;42.650;23.364;2023-02-28T10:39:41;37.47;;;33.87;;
11098;SDS011;12223;42.650;23.364;2023-02-28T10:42:22;51.93;;;48.27;;
11098;SDS011;12223;42.650;23.364;2023-02-28T10:47:37;17.77;;;14.23;;
11098;SDS011;12223;42.650;23.364;2023-02-28T10:50:27;26.00;;;23.43;;
11098;SDS011;12223;42.650;23.364;2023-02-28T10:52:57;23.20;;;15.03;;
11098;SDS011;12223;42.650;23.364;2023-02-28T10:55:34;15.13;;;12.60;;
11098;SDS011;12223;42.650;23.364;2023-02-28T10:58:02;14.80;;;11.80;;
11098;SDS011;12223;42.650;23.364;2023-02-28T11:00:31;19.97;;;17.80;;
11098;SDS011;12223;42.650;23.364;2023-02-28T11:03:01;20.10;;;18.10;;
11098;SDS011;12223;42.650;23.364;2023-02-28T11:05:39;25.70;;;21.03;;
11098;SDS011;12223;42.650;23.364;2023-02-28T11:08:12;29.53;;;24.50;;
11098;SDS011;12223;42.650;23.364;2023-02-28T11:10:47;24.90;;;19.37;;
11098;SDS011;12223;42.650;23.364;2023-02-28T11:13:26;33.23;;;30.23;;
11098;SDS011;12223;42.650;23.364;2023-02-28T11:16:04;31.53;;;21.77;;
11098;SDS011;12223;42.650;23.364;2023-02-28T11:18:37;17.37;;;15.50;;
11098;SDS011;12223;42.650;23.364;2023-02-28T11:21:10;26.53;;;19.67;;
11098;SDS011;12223;42.650;23.364;2023-02-28T11:23:49;17.93;;;16.23;;
11098;SDS011;12223;42.650;23.364;2023-02-28T11:26:38;23.17;;;17.80;;
11098;SDS011;12223;42.650;23.364;2023-02-28T11:29:16;34.50;;;30.30;;
11098;SDS011;12223;42.650;23.364;2023-02-28T11:31:59;27.43;;;23.10;;
11098;SDS011;12223;42.650;23.364;2023-02-28T11:34:29;26.00;;;17.93;;
11098;SDS011;12223;42.650;23.364;2023-02-28T11:36:57;25.27;;;18.20;;
11098;SDS011;12223;42.650;23.364;2023-02-28T11:39:26;33.20;;;29.77;;
11098;SDS011;12223;42.650;23.364;2023-02-28T11:41:58;17.77;;;14.07;;
11098;SDS011;12223;42.650;23.364;2023-02-28T11:44:35;18.03;;;15.37;;
11098;SDS011;12223;42.650;23.364;2023-02-28T11:47:10;25.90;;;19.00;;
11098;SDS011;12223;42.650;23.364;2023-02-28T11:49:45;17.03;;;14.90;;
11098;SDS011;12223;42.650;23.364;2023-02-28T11:52:20;24.13;;;16.00;;
11098;SDS011;12223;42.650;23.364;2023-02-28T11:55:01;20.47;;;15.53;;
11098;SDS011;12223;42.650;23.364;2023-02-28T11:57:52;30.53;;;28.03;;
11098;SDS011;12223;42.650;23.364;2023-02-28T12:00:44;27.23;;;21.37;;
11098;SDS011;12223;42.650;23.364;2023-02-28T12:03:31;18.43;;;13.67;;
11098;SDS011;12223;42.650;23.364;2023-02-28T12:06:10;24.90;;;21.83;;
11098;SDS011;12223;42.650;23.364;2023-02-28T12:08:47;25.27;;;20.33;;
11098;SDS011;12223;42.650;23.364;2023-02-28T12:11:26;29.13;;;25.77;;
11098;SDS011;12223;42.650;23.364;2023-02-28T12:14:07;26.40;;;17.60;;
11098;SDS011;12223;42.650;23.364;2023-02-28T12:16:55;25.97;;;22.03;;
11098;SDS011;12223;42.650;23.364;2023-02-28T12:19:33;27.37;;;22.27;;
11098;SDS011;12223;42.650;23.364;2023-02-28T12:22:22;28.17;;;17.90;;
11098;SDS011;12223;42.650;23.364;2023-02-28T12:28:07;35.60;;;31.93;;
11098;SDS011;12223;42.650;23.364;2023-02-28T12:30:37;20.90;;;17.07;;
11098;SDS011;12223;42.650;23.364;2023-02-28T12:33:13;36.40;;;34.03;;
11098;SDS011;12223;42.650;23.364;2023-02-28T12:35:46;27.57;;;22.23;;
11098;SDS011;12223;42.650;23.364;2023-02-28T12:38:17;18.23;;;14.63;;
11098;SDS011;12223;42.650;23.364;2023-02-28T12:40:48;23.17;;;16.53;;
11098;SDS011;12223;42.650;23.364;2023-02-28T12:43:22;30.53;;;16.93;;
11098;SDS011;12223;42.650;23.364;2023-02-28T12:45:54;53.87;;;49.93;;
11098;SDS011;12223;42.650;23.364;2023-02-28T12:48:26;23.50;;;18.27;;
11098;SDS011;12223;42.650;23.364;2023-02-28T12:50:57;35.97;;;32.70;;
11098;SDS011;12223;42.650;23.364;2023-02-28T12:53:27;26.40;;;21.50;;
11098;SDS011;12223;42.650;23.364;2023-02-28T12:56:07;26.73;;;22.40;;
11098;SDS011;12223;42.650;23.364;2023-02-28T12:58:43;33.20;;;27.90;;
11098;SDS011;12223;42.650;23.364;2023-02-28T13:01:20;14.17;;;12.70;;
11098;SDS011;12223;42.650;23.364;2023-02-28T13:07:00;20.20;;;16.47;;
11098;SDS011;12223;42.650;23.364;2023-02-28T13:09:51;42.87;;;39.57;;
11098;SDS011;12223;42.650;23.364;2023-02-28T13:12:20;19.60;;;14.80;;
11098;SDS011;12223;42.650;23.364;2023-02-28T13:14:49;22.70;;;13.50;;
11098;SDS011;12223;42.650;23.364;2023-02-28T13:17:17;23.03;;;15.50;;
11098;SDS011;12223;42.650;23.364;2023-02-28T13:19:55;25.67;;;18.67;;
11098;SDS011;12223;42.650;23.364;2023-02-28T13:22:36;28.37;;;19.27;;
11098;SDS011;12223;42.650;23.364;2023-02-28T13:31:21;19.63;;;17.73;;
11098;SDS011;12223;42.650;23.364;2023-02-28T13:36:40;28.60;;;19.63;;
11098;SDS011;12223;42.650;23.364;2023-02-28T13:42:23;19.73;;;13.80;;
11098;SDS011;12223;42.650;23.364;2023-02-28T13:45:21;28.73;;;25.23;;
11098;SDS011;12223;42.650;23.364;2023-02-28T13:47:58;37.13;;;34.03;;
11098;SDS011;12223;42.650;23.364;2023-02-28T13:50:27;23.87;;;17.27;;
11098;SDS011;12223;42.650;23.364;2023-02-28T13:53:00;24.27;;;19.03;;
11098;SDS011;12223;42.650;23.364;2023-02-28T13:55:51;27.60;;;25.03;;
11098;SDS011;12223;42.650;23.364;2023-02-28T13:58:27;19.00;;;14.77;;
11098;SDS011;12223;42.650;23.364;2023-02-28T14:01:09;50.60;;;46.80;;
11098;SDS011;12223;42.650;23.364;2023-02-28T14:03:56;26.70;;;22.90;;
11098;SDS011;12223;42.650;23.364;2023-02-28T14:06:54;22.93;;;14.53;;
11098;SDS011;12223;42.650;23.364;2023-02-28T14:09:23;23.83;;;18.07;;
11098;SDS011;12223;42.650;23.364;2023-02-28T14:11:52;29.63;;;26.73;;
11098;SDS011;12223;42.650;23.364;2023-02-28T14:17:22;41.57;;;38.53;;
11098;SDS011;12223;42.650;23.364;2023-02-28T14:19:52;58.20;;;53.40;;
11098;SDS011;12223;42.650;23.364;2023-02-28T14:22:24;38.07;;;27.20;;
11098;SDS011;12223;42.650;23.364;2023-02-28T14:25:11;42.43;;;39.20;;
11098;SDS011;12223;42.650;23.364;2023-02-28T14:27:48;25.17;;;22.53;;
11098;SDS011;12223;42.650;23.364;2023-02-28T14:33:27;23.23;;;17.13;;
11098;SDS011;12223;42.650;23.364;2023-02-28T14:36:12;23.67;;;18.43;;
11098;SDS011;12223;42.650;23.364;2023-02-28T14:38:45;24.47;;;17.10;;
11098;SDS011;12223;42.650;23.364;2023-02-28T14:41:18;27.23;;;20.00;;
11098;SDS011;12223;42.650;23.364;2023-02-28T14:43:49;58.17;;;53.97;;
11098;SDS011;12223;42.650;23.364;2023-02-28T14:46:18;47.43;;;43.20;;
11098;SDS011;12223;42.650;23.364;2023-02-28T14:48:46;34.40;;;31.27;;
11098;SDS011;12223;42.650;23.364;2023-02-28T14:51:19;23.80;;;19.40;;
11098;SDS011;12223;42.650;23.364;2023-02-28T14:53:50;37.73;;;34.63;;
11098;SDS011;12223;42.650;23.364;2023-02-28T14:56:22;23.70;;;20.17;;
11098;SDS011;12223;42.650;23.364;2023-02-28T14:58:53;28.70;;;26.27;;
11098;SDS011;12223;42.650;23.364;2023-02-28T15:01:21;19.43;;;17.27;;